createdAt,value
2022-11-15T00:05:28.785Z,465.71
2022-11-15T00:11:00.398Z,466.05
2022-11-15T00:16:32.306Z,466.05
2022-11-15T00:22:03.936Z,466.40
2022-11-15T00:27:35.757Z,466.92
2022-11-15T00:33:07.463Z,467.10
2022-11-15T00:38:39.312Z,467.27
2022-11-15T00:44:10.975Z,467.80
2022-11-15T00:49:42.840Z,468.14
2022-11-15T00:55:14.596Z,468.84
2022-11-15T01:00:46.344Z,469.10
2022-11-15T01:06:18.172Z,469.62
2022-11-15T01:11:50.222Z,470.15
2022-11-15T01:17:21.667Z,470.50
2022-11-15T01:22:52.901Z,470.67
2022-11-15T01:28:24.346Z,471.19
2022-11-15T01:33:56.058Z,471.54
2022-11-15T01:39:27.773Z,471.89
2022-11-15T01:44:59.092Z,471.72
2022-11-15T01:52:43.025Z,472.41
2022-11-15T01:58:14.353Z,472.76
2022-11-15T02:03:46.092Z,473.20
2022-11-15T02:09:17.953Z,473.37
2022-11-15T02:14:49.926Z,473.72
2022-11-15T02:20:21.606Z,473.89
2022-11-15T02:25:53.426Z,474.42
2022-11-15T02:31:25.246Z,475.11
2022-11-15T02:36:56.948Z,475.64
2022-11-15T02:42:29.114Z,476.33
2022-11-15T02:48:00.964Z,476.68
2022-11-15T02:53:33.037Z,477.21
2022-11-15T02:59:04.335Z,477.38
2022-11-15T03:04:36.445Z,477.38
2022-11-15T03:10:08.544Z,478.17
2022-11-15T03:15:40.373Z,478.34
2022-11-15T03:21:12.118Z,478.51
2022-11-15T03:26:44.032Z,478.69
2022-11-15T03:32:15.983Z,478.69
2022-11-15T03:37:47.644Z,479.39
2022-11-15T03:43:19.531Z,479.91
2022-11-15T03:48:51.264Z,480.08
2022-11-15T03:54:22.991Z,480.61
2022-11-15T03:59:54.725Z,480.96
2022-11-15T04:05:26.466Z,481.30
2022-11-15T04:10:58.972Z,481.92
2022-11-15T04:16:30.585Z,482.26
2022-11-15T04:22:02.306Z,482.26
2022-11-15T04:27:34.219Z,482.26
2022-11-15T04:33:05.872Z,482.61
2022-11-15T04:38:37.786Z,482.79
2022-11-15T04:44:09.366Z,483.14
2022-11-15T04:49:41.111Z,484.01
2022-11-15T04:55:12.837Z,484.01
2022-11-15T04:57:37.008Z,484.01
2022-11-15T05:03:08.947Z,484.53
2022-11-15T05:08:41.010Z,485.06
2022-11-15T05:14:13.064Z,485.58
2022-11-15T05:19:44.862Z,486.10
2022-11-15T05:25:16.797Z,486.28
2022-11-15T05:30:48.765Z,486.71
2022-11-15T05:36:20.671Z,486.89
2022-11-15T05:41:52.505Z,487.06
2022-11-15T05:47:24.142Z,487.41
2022-11-15T05:52:59.666Z,487.94
2022-11-15T05:58:28.296Z,488.81
2022-11-15T06:04:00.125Z,488.98
2022-11-15T06:09:31.817Z,489.16
2022-11-15T06:15:03.603Z,489.16
2022-11-15T06:20:35.558Z,489.51
2022-11-15T06:26:07.349Z,489.86
2022-11-15T06:31:38.931Z,489.86
2022-11-15T06:37:10.446Z,490.03
2022-11-15T06:42:42.214Z,490.03
2022-11-15T06:48:13.872Z,489.68
2022-11-15T06:53:45.581Z,489.33
2022-11-15T06:59:17.420Z,488.81
2022-11-15T07:04:49.831Z,488.11
2022-11-15T07:10:21.932Z,487.76
2022-11-15T07:15:53.654Z,487.59
2022-11-15T07:21:27.729Z,487.94
2022-11-15T07:26:57.209Z,487.59
2022-11-15T07:32:29.568Z,487.24
2022-11-15T07:38:01.672Z,487.76
2022-11-15T07:45:30.648Z,488.63
2022-11-15T07:51:02.587Z,488.98
2022-11-15T07:56:34.313Z,489.68
2022-11-15T08:02:06.105Z,490.03
2022-11-15T08:13:07.575Z,490.73
2022-11-15T08:18:39.233Z,491.25
2022-11-15T08:24:11.229Z,491.86
2022-11-15T08:29:43.413Z,492.21
2022-11-15T08:35:15.368Z,492.91
2022-11-15T08:40:47.643Z,493.09
2022-11-15T08:46:19.818Z,493.09
2022-11-15T08:51:52.085Z,493.61
2022-11-15T08:57:24.480Z,493.61
2022-11-15T09:03:02.354Z,493.96
2022-11-15T09:08:47.357Z,494.31
2022-11-15T09:14:06.244Z,495.01
2022-11-15T09:19:38.378Z,495.44
2022-11-15T09:25:16.277Z,496.14
2022-11-15T09:30:48.626Z,496.67
2022-11-15T09:36:20.850Z,497.37
2022-11-15T09:41:59.064Z,498.06
2022-11-15T09:47:31.237Z,498.94
2022-11-15T09:53:08.961Z,499.55
2022-11-15T09:58:40.966Z,500.07
2022-11-15T10:04:19.187Z,500.42
2022-11-15T10:09:57.014Z,500.95
2022-11-15T10:15:29.298Z,501.82
2022-11-15T10:21:07.638Z,502.69
2022-11-15T10:26:45.711Z,503.39
2022-11-15T10:32:18.099Z,504.01
2022-11-15T10:37:56.301Z,504.70
2022-11-15T10:43:34.436Z,505.40
2022-11-15T10:49:06.746Z,506.45
2022-11-15T10:54:38.663Z,507.33
2022-11-15T11:00:16.824Z,508.73
2022-11-15T11:05:49.025Z,509.51
2022-11-15T11:11:20.884Z,509.86
2022-11-15T11:16:59.085Z,510.74
2022-11-15T11:22:37.291Z,511.26
2022-11-15T11:28:10.584Z,512.31
2022-11-15T11:33:48.920Z,513.01
2022-11-15T11:39:21.485Z,513.63
2022-11-15T11:44:53.382Z,514.50
2022-11-15T11:50:31.474Z,515.20
2022-11-15T11:56:03.350Z,515.73
2022-11-15T12:01:35.643Z,516.25
2022-11-15T12:07:07.943Z,516.95
2022-11-15T12:12:46.093Z,517.56
2022-11-15T12:18:18.251Z,517.74
2022-11-15T12:23:56.354Z,517.91
2022-11-15T12:29:34.509Z,518.44
2022-11-15T12:35:12.316Z,518.79
2022-11-15T12:40:44.649Z,519.31
2022-11-15T12:46:16.635Z,519.31
2022-11-15T12:51:48.952Z,519.84
2022-11-15T12:57:21.199Z,520.36
2022-11-15T13:02:59.545Z,520.54
2022-11-15T13:08:32.018Z,521.06
2022-11-15T13:14:04.064Z,521.24
2022-11-15T13:19:42.234Z,521.59
2022-11-15T13:25:19.995Z,521.59
2022-11-15T13:30:52.164Z,521.59
2022-11-15T13:42:10.204Z,521.94
2022-11-15T13:47:48.329Z,522.03
2022-11-15T13:53:20.265Z,522.38
2022-11-15T13:58:52.472Z,522.73
2022-11-15T14:04:24.849Z,523.08
2022-11-15T14:09:56.885Z,522.73
2022-11-15T14:15:28.758Z,522.55
2022-11-15T14:21:06.576Z,522.38
2022-11-15T14:26:44.225Z,522.73
2022-11-15T14:32:22.117Z,522.38
2022-11-15T14:43:38.275Z,522.20
2022-11-15T14:49:16.336Z,521.76
2022-11-15T14:54:48.589Z,522.20
2022-11-15T15:00:20.874Z,522.55
2022-11-15T15:05:53.210Z,523.08
2022-11-15T15:11:25.693Z,522.73
2022-11-15T15:16:57.804Z,523.08
2022-11-15T15:22:30.567Z,523.43
2022-11-15T15:28:02.464Z,523.78
2022-11-15T15:33:34.508Z,523.78
2022-11-15T15:39:06.678Z,523.60
2022-11-15T15:44:39.094Z,523.60
2022-11-15T15:50:11.489Z,523.95
2022-11-15T15:55:43.349Z,524.30
2022-11-15T16:01:15.300Z,523.95
2022-11-15T16:06:47.265Z,524.48
2022-11-15T16:12:19.211Z,525.36
2022-11-15T16:17:51.555Z,526.14
2022-11-15T16:23:23.620Z,526.67
2022-11-15T16:28:55.599Z,527.37
2022-11-15T16:34:31.169Z,528.77
2022-11-15T16:40:01.326Z,529.12
2022-11-15T16:45:32.288Z,529.30
2022-11-15T16:51:04.555Z,529.82
2022-11-15T16:56:36.605Z,530.17
2022-11-15T17:02:08.388Z,530.52
2022-11-15T17:07:40.032Z,530.70
2022-11-15T17:13:12.092Z,530.96
2022-11-15T17:18:44.388Z,531.49
2022-11-15T17:24:16.550Z,531.84
2022-11-15T17:29:48.723Z,532.19
2022-11-15T17:35:21.284Z,532.19
2022-11-15T17:40:53.155Z,532.37
2022-11-15T17:46:25.167Z,532.54
2022-11-15T17:51:57.723Z,532.54
2022-11-15T17:57:29.690Z,532.72
2022-11-15T18:03:01.764Z,533.42
2022-11-15T18:08:33.850Z,533.77
2022-11-15T18:14:05.764Z,534.12
2022-11-15T18:19:38.010Z,534.64
2022-11-15T18:25:10.246Z,535.43
2022-11-15T18:30:42.515Z,535.43
2022-11-15T18:36:14.774Z,535.96
2022-11-15T18:41:47.061Z,536.49
2022-11-15T18:47:19.375Z,536.84
2022-11-15T18:49:43.099Z,537.71
2022-11-15T18:55:15.197Z,537.71
2022-11-15T19:00:47.053Z,538.06
2022-11-15T19:06:18.857Z,538.24
2022-11-15T19:11:50.784Z,538.59
2022-11-15T19:17:22.231Z,539.03
2022-11-15T19:22:53.638Z,539.38
2022-11-15T19:28:25.642Z,539.91
2022-11-15T19:33:57.439Z,539.91
2022-11-15T19:39:29.141Z,540.61
2022-11-15T19:45:00.928Z,540.78
2022-11-15T19:50:32.669Z,540.96
2022-11-15T19:56:04.684Z,541.31
2022-11-15T20:01:36.702Z,541.66
2022-11-15T20:07:08.531Z,542.01
2022-11-15T20:12:45.767Z,542.36
2022-11-15T20:18:17.721Z,543.06
2022-11-15T20:23:49.429Z,543.42
2022-11-15T20:29:27.177Z,543.42
2022-11-15T20:34:59.088Z,543.85
2022-11-15T20:40:30.921Z,544.20
2022-11-15T20:46:02.584Z,544.73
2022-11-15T20:51:34.386Z,545.26
2022-11-15T20:57:06.345Z,545.61
2022-11-15T21:02:37.819Z,546.31
2022-11-15T21:08:09.449Z,547.19
2022-11-15T21:13:40.853Z,547.89
2022-11-15T21:19:12.547Z,548.33
2022-11-15T21:24:44.307Z,549.21
2022-11-15T21:30:16.256Z,549.91
2022-11-15T21:35:53.706Z,551.49
2022-11-15T21:46:54.738Z,552.81
2022-11-15T21:52:26.316Z,553.33
2022-11-15T21:57:58.030Z,554.04
2022-11-15T22:03:29.866Z,554.92
2022-11-15T22:14:31.046Z,555.79
2022-11-15T22:20:22.764Z,556.67
2022-11-15T22:25:34.589Z,557.11
2022-11-15T22:37:13.294Z,557.29
2022-11-15T22:42:18.249Z,557.64
2022-11-15T22:47:46.945Z,557.81
2022-11-15T22:53:18.781Z,557.99
2022-11-15T22:58:50.496Z,558.17
2022-11-15T23:04:22.405Z,557.99
2022-11-15T23:09:54.116Z,558.34
2022-11-15T23:15:29.568Z,559.04
2022-11-15T23:20:57.719Z,559.40
2022-11-15T23:26:29.321Z,560.10
2022-11-15T23:32:02.291Z,561.07
2022-11-15T23:37:32.525Z,562.30
2022-11-15T23:43:04.363Z,563.35
2022-11-15T23:48:36.195Z,564.58
2022-11-15T23:54:07.408Z,565.46
2022-11-15T23:59:39.082Z,566.60
